Time;durP1;ratioP1;P1;durP2;ratioP2;P2;SDS_P1;SDS_P2;PMS_P1;PMS_P2;Temp;Humidity;BMP_temperature;BMP_pressure;BME280_temperature;BME280_humidity;BME280_pressure;Samples;Min_cycle;Max_cycle;Signal;HPM_P1;HPM_P2
2022/01/17 00:01:55;;;;;;;20.30;2.72;;;;;;;1.45;100.00;102251.09;9855349;30;20032;-86
2022/01/17 00:06:55;;;;;;;29.98;3.85;;;;;;;2.32;100.00;102433.94;9825803;30;20070;-86
2022/01/17 00:11:57;;;;;;;14.90;3.00;;;;;;;1.96;100.00;102303.66;9848520;30;20052;-86
2022/01/17 00:17:09;;;;;;;16.88;2.70;;;;;;;0.60;100.00;102138.66;9841671;30;20044;-87
2022/01/17 00:22:11;;;;;;;23.13;3.03;;;;;;;2.59;100.00;102452.75;9844105;30;20553;-87
2022/01/17 00:27:11;;;;;;;18.00;4.32;;;;;;;1.87;100.00;102445.84;9841563;30;20028;-86
2022/01/17 00:32:12;;;;;;;22.65;3.83;;;;;;;1.97;100.00;102427.59;9803913;30;20036;-86
2022/01/17 00:37:13;;;;;;;23.02;4.90;;;;;;;2.87;100.00;102525.09;9853093;30;20498;-87
2022/01/17 00:42:13;;;;;;;15.07;2.22;;;;;;;1.22;100.00;102259.78;9840731;30;20126;-86
2022/01/17 00:47:14;;;;;;;23.73;3.55;;;;;;;1.24;100.00;102268.63;9855441;30;20134;-87
2022/01/17 00:52:15;;;;;;;16.08;2.67;;;;;;;1.23;100.00;102231.63;9840523;30;20446;-86
2022/01/17 00:57:15;;;;;;;15.18;2.22;;;;;;;-0.06;100.00;102095.78;9839761;30;20074;-87
2022/01/17 01:02:16;;;;;;;9.35;1.90;;;;;;;1.78;100.00;102272.00;9839078;30;20455;-86
2022/01/17 01:07:16;;;;;;;16.95;2.28;;;;;;;-2.36;100.00;101779.59;9839799;30;20040;-86
2022/01/17 01:12:17;;;;;;;15.27;2.42;;;;;;;1.75;100.00;102418.94;9868573;30;20047;-87
2022/01/17 01:17:36;;;;;;;12.45;2.17;;;;;;;2.87;100.00;102607.56;9841336;30;20051;-95
2022/01/17 01:27:58;;;;;;;16.65;2.75;;;;;;;3.48;100.00;102572.13;9832334;30;20031;-96
2022/01/17 01:32:59;;;;;;;26.20;3.38;;;;;;;-1.12;100.00;101950.25;9824813;30;20054;-87
2022/01/17 01:38:00;;;;;;;15.88;2.72;;;;;;;0.47;100.00;102214.06;9851322;30;20067;-87
2022/01/17 01:43:01;;;;;;;17.58;3.28;;;;;;;0.64;100.00;102209.69;9839148;30;20427;-87
2022/01/17 01:48:02;;;;;;;10.45;2.10;;;;;;;1.42;100.00;102272.13;9839241;30;20032;-87
2022/01/17 01:53:02;;;;;;;17.42;2.63;;;;;;;0.64;100.00;102165.44;9853671;30;20190;-87
2022/01/17 01:58:03;;;;;;;17.30;3.13;;;;;;;-2.36;100.00;101561.16;9828328;30;20036;-87
2022/01/17 02:03:06;;;;;;;22.15;2.90;;;;;;;4.23;100.00;102784.72;9821523;30;20067;-87
2022/01/17 02:08:11;;;;;;;22.40;3.60;;;;;;;0.67;100.00;102170.56;9824051;30;20052;-88
2022/01/17 02:13:20;;;;;;;15.95;2.33;;;;;;;1.08;100.00;102317.31;9812707;30;20056;-87
2022/01/17 02:18:29;;;;;;;18.17;2.45;;;;;;;0.54;100.00;102170.97;9832821;30;20131;-96
2022/01/17 02:23:29;;;;;;;10.18;2.58;;;;;;;2.54;100.00;102546.69;9851735;30;20040;-96
2022/01/17 02:28:33;;;;;;;15.55;2.75;;;;;;;2.43;100.00;102577.72;9833775;30;20071;-96
2022/01/17 02:33:34;;;;;;;15.80;2.97;;;;;;;-0.72;100.00;102115.84;9835192;30;20046;-95
2022/01/17 02:38:34;;;;;;;18.58;2.33;;;;;;;0.12;100.00;102242.81;9830708;30;20568;-88
2022/01/17 02:43:35;;;;;;;13.05;2.47;;;;;;;2.37;100.00;102600.94;9844452;30;20047;-87
2022/01/17 02:48:38;;;;;;;12.60;3.00;;;;;;;3.70;100.00;102740.41;9844534;30;20093;-87
2022/01/17 02:53:40;;;;;;;21.55;3.42;;;;;;;-0.93;100.00;102078.19;9858535;30;20513;-87
2022/01/17 02:58:40;;;;;;;18.02;2.58;;;;;;;-0.03;100.00;102269.56;9842893;30;20551;-87
2022/01/17 03:03:44;;;;;;;15.55;2.67;;;;;;;-0.67;100.00;101951.25;9806043;30;20165;-88
2022/01/17 03:08:44;;;;;;;16.92;2.88;;;;;;;-0.33;100.00;102173.28;9793630;30;20394;-87
2022/01/17 03:13:47;;;;;;;21.35;2.88;;;;;;;-2.72;100.00;101550.31;9792868;30;20142;-88
2022/01/17 03:18:52;;;;;;;19.90;2.90;;;;;;;-0.70;100.00;102055.19;9807936;30;20578;-87
2022/01/17 03:23:53;;;;;;;18.42;2.60;;;;;;;0.77;100.00;102241.81;9795376;30;20039;-87
2022/01/17 03:28:53;;;;;;;16.75;2.78;;;;;;;1.25;100.00;102293.88;9856678;30;20035;-87
2022/01/17 03:33:54;;;;;;;21.88;3.50;;;;;;;-0.55;100.00;102035.72;9859792;30;20471;-96
2022/01/17 03:38:55;;;;;;;19.80;2.45;;;;;;;-0.91;100.00;102057.28;9846222;30;20082;-95
2022/01/17 03:43:56;;;;;;;20.52;2.80;;;;;;;1.75;100.00;102410.78;9845968;30;20035;-96
2022/01/17 03:48:56;;;;;;;17.67;2.88;;;;;;;2.65;100.00;102499.31;9861812;30;20462;-95
2022/01/17 03:53:57;;;;;;;21.52;4.55;;;;;;;-2.30;100.00;101690.00;9847437;30;20055;-95
2022/01/17 03:58:58;;;;;;;13.13;2.30;;;;;;;-1.78;100.00;101947.72;9841841;30;20044;-87
2022/01/17 04:03:58;;;;;;;18.67;3.35;;;;;;;0.04;100.00;102158.78;9856786;30;20043;-88
2022/01/17 04:08:59;;;;;;;20.90;2.90;;;;;;;-0.09;100.00;102152.91;9842310;30;20031;-87
2022/01/17 04:13:59;;;;;;;17.88;2.50;;;;;;;3.36;100.00;102661.41;9856613;30;20060;-87
2022/01/17 04:19:00;;;;;;;15.05;3.72;;;;;;;3.99;100.00;102827.22;9841043;30;20193;-85
2022/01/17 04:24:00;;;;;;;18.23;2.83;;;;;;;2.48;100.00;102474.78;9830902;30;20039;-95
2022/01/17 04:29:01;;;;;;;20.90;5.18;;;;;;;1.68;100.00;102503.91;9830577;30;20078;-96
2022/01/17 04:34:01;;;;;;;32.85;4.72;;;;;;;-0.05;100.00;102151.59;9829844;30;20032;-96
2022/01/17 04:39:02;;;;;;;17.70;2.40;;;;;;;1.22;100.00;102281.50;9828640;30;20123;-87
2022/01/17 04:45:07;;;;;;;15.13;2.00;;;;;;;4.13;100.00;102904.78;9814281;30;20048;-96
2022/01/17 04:49:24;;;;;;;14.18;2.42;;;;;;;1.87;100.00;102501.03;9831584;30;20046;-88
2022/01/17 04:54:40;;;;;;;23.52;3.35;;;;;;;0.45;100.00;102217.94;9827351;30;20035;-87
2022/01/17 04:59:40;;;;;;;14.52;2.85;;;;;;;-0.05;100.00;101997.28;9816974;30;20130;-96
2022/01/17 05:04:41;;;;;;;18.13;1.98;;;;;;;0.74;100.00;102269.22;9814911;30;20134;-96
2022/01/17 05:09:43;;;;;;;11.25;2.53;;;;;;;0.01;100.00;102104.97;9844051;30;20052;-96
2022/01/17 05:14:47;;;;;;;15.75;3.00;;;;;;;-0.01;100.00;102036.59;9829167;30;20109;-96
2022/01/17 05:19:56;;;;;;;19.13;2.78;;;;;;;-0.64;100.00;102115.91;9829052;30;20138;-87
2022/01/17 05:24:57;;;;;;;10.60;1.83;;;;;;;0.46;100.00;102124.84;9827290;30;20036;-88
2022/01/17 05:29:58;;;;;;;13.68;3.15;;;;;;;-0.41;100.00;101878.28;9839283;30;20059;-87
2022/01/17 05:34:58;;;;;;;12.68;2.22;;;;;;;-0.44;100.00;101916.47;9839342;30;20119;-87
2022/01/17 05:39:59;;;;;;;31.00;3.78;;;;;;;0.33;100.00;102049.38;9838892;30;20090;-88
2022/01/17 05:44:59;;;;;;;15.25;2.60;;;;;;;0.62;100.00;102141.22;9824183;30;20097;-88
2022/01/17 05:50:02;;;;;;;19.23;2.90;;;;;;;1.66;100.00;102335.75;9828878;30;20081;-87
2022/01/17 05:55:04;;;;;;;19.63;3.28;;;;;;;0.23;100.00;102119.91;9847039;30;20038;-88
2022/01/17 06:00:05;;;;;;;19.20;4.25;;;;;;;2.60;100.00;102473.50;9846060;30;20048;-88
2022/01/17 06:05:07;;;;;;;20.50;3.67;;;;;;;1.25;100.00;102205.19;9845451;30;20054;-88
2022/01/17 06:10:07;;;;;;;21.15;3.63;;;;;;;1.41;100.00;102170.03;9817595;30;20054;-88
2022/01/17 06:15:08;;;;;;;15.80;2.92;;;;;;;0.52;100.00;102184.66;9849098;30;20090;-96
2022/01/17 06:20:09;;;;;;;25.17;3.72;;;;;;;0.79;100.00;102181.00;9840303;30;20059;-96
2022/01/17 06:25:10;;;;;;;18.15;3.00;;;;;;;0.73;100.00;102186.19;9823203;30;20047;-96
2022/01/17 06:30:13;;;;;;;21.83;4.47;;;;;;;1.45;100.00;102104.56;9832596;30;20516;-88
2022/01/17 06:35:14;;;;;;;24.70;3.35;;;;;;;2.58;100.00;102489.13;9831181;30;20105;-88
2022/01/17 06:40:15;;;;;;;20.30;3.95;;;;;;;-1.76;100.00;101548.88;9830255;30;20043;-87
2022/01/17 06:45:18;;;;;;;22.88;4.53;;;;;;;-1.33;100.00;101779.47;9830314;30;20126;-88
2022/01/17 06:50:18;;;;;;;20.42;3.40;;;;;;;0.70;100.00;102061.81;9845575;30;20040;-87
2022/01/17 06:55:19;;;;;;;28.27;4.22;;;;;;;1.14;100.00;102162.94;9844460;30;20474;-96
2022/01/17 07:00:20;;;;;;;18.90;3.35;;;;;;;5.08;100.00;102969.31;9832928;30;20073;-96
2022/01/17 07:05:20;;;;;;;18.85;3.92;;;;;;;1.25;100.00;102223.34;9833084;30;20044;-88
2022/01/17 07:10:22;;;;;;;33.08;6.03;;;;;;;1.91;100.00;102452.69;9858902;30;20109;-88
2022/01/17 07:15:22;;;;;;;28.23;5.90;;;;;;;-0.71;100.00;101745.19;9829499;30;20050;-88
2022/01/17 07:20:23;;;;;;;27.30;5.78;;;;;;;1.81;100.00;102270.81;9858577;30;20140;-87
2022/01/17 07:25:23;;;;;;;40.67;6.78;;;;;;;2.41;100.00;102254.38;9832744;30;20035;-95
2022/01/17 07:30:24;;;;;;;25.17;4.60;;;;;;;0.84;100.00;102088.34;9847185;30;20102;-96
2022/01/17 07:35:25;;;;;;;26.08;5.18;;;;;;;-0.38;100.00;101986.19;9831765;30;20048;-96
2022/01/17 07:40:25;;;;;;;38.55;6.13;;;;;;;2.08;100.00;102372.97;9831932;30;20066;-96
2022/01/17 07:45:27;;;;;;;28.70;4.25;;;;;;;2.46;100.00;102478.66;9831969;30;20139;-96
2022/01/17 07:50:27;;;;;;;27.10;3.92;;;;;;;1.42;100.00;102188.00;9831390;30;20039;-95
2022/01/17 07:55:28;;;;;;;24.73;3.65;;;;;;;-0.69;100.00;101881.09;9831409;30;20139;-96
2022/01/17 08:00:28;;;;;;;30.48;4.78;;;;;;;4.44;100.00;102792.44;9846137;30;20043;-96
2022/01/17 08:05:29;;;;;;;35.08;9.45;;;;;;;1.93;100.00;102382.75;9831013;30;20445;-96
2022/01/17 08:10:30;;;;;;;31.30;4.78;;;;;;;2.59;100.00;102311.34;9842198;30;20075;-88
2022/01/17 08:15:31;;;;;;;35.28;4.90;;;;;;;0.86;100.00;102105.28;9855973;30;20055;-88
2022/01/17 08:20:33;;;;;;;22.40;4.30;;;;;;;3.35;100.00;102607.97;9827529;30;20138;-88
2022/01/17 08:25:34;;;;;;;36.63;5.28;;;;;;;3.67;100.00;102484.66;9841855;30;20032;-96
2022/01/17 08:30:34;;;;;;;33.53;6.82;;;;;;;2.02;100.00;102230.50;9847547;30;20044;-95
2022/01/17 08:35:35;;;;;;;30.63;5.50;;;;;;;3.59;100.00;102541.84;9862265;30;20112;-93
2022/01/17 08:40:35;;;;;;;35.40;4.25;;;;;;;3.28;100.00;102517.09;9846204;30;20036;-95
2022/01/17 08:45:36;;;;;;;27.90;4.40;;;;;;;4.68;100.00;102734.34;9845099;30;20052;-95
2022/01/17 08:50:37;;;;;;;32.35;4.35;;;;;;;2.23;100.00;102278.13;9857292;29;20054;-96
2022/01/17 08:55:37;;;;;;;25.00;4.93;;;;;;;1.66;100.00;102183.72;9843390;30;20180;-95
2022/01/17 09:00:38;;;;;;;38.28;5.35;;;;;;;4.87;100.00;102655.91;9859808;30;20126;-96
2022/01/17 09:05:38;;;;;;;21.98;5.57;;;;;;;4.96;100.00;102720.34;9863915;30;20444;-96
2022/01/17 09:10:39;;;;;;;26.42;5.85;;;;;;;0.58;100.00;101923.03;9871505;30;20047;-96
2022/01/17 09:15:40;;;;;;;42.55;6.72;;;;;;;0.47;100.00;101807.66;9863746;30;20071;-96
2022/01/17 09:20:40;;;;;;;38.50;6.20;;;;;;;3.36;100.00;102436.31;9844013;30;20052;-87
2022/01/17 09:25:41;;;;;;;27.52;5.07;;;;;;;3.38;100.00;102382.53;9849604;30;20043;-96
2022/01/17 09:30:42;;;;;;;43.53;7.53;;;;;;;4.00;100.00;102511.94;9837963;30;20450;-93
2022/01/17 09:35:42;;;;;;;52.33;7.22;;;;;;;3.03;100.00;102460.72;9847171;30;20036;-96
2022/01/17 09:40:43;;;;;;;39.25;6.28;;;;;;;5.60;100.00;102707.59;9826999;30;20075;-88
2022/01/17 09:45:44;;;;;;;39.20;7.18;;;;;;;3.16;100.00;102195.41;9809047;30;20036;-88
2022/01/17 09:51:00;;;;;;;37.72;7.20;;;;;;;4.82;100.00;102569.09;9851306;30;20429;-86
2022/01/17 09:56:03;;;;;;;47.22;6.85;;;;;;;5.13;100.00;102617.47;9853561;30;20028;-88
2022/01/17 10:01:04;;;;;;;31.35;6.00;;;;;;;2.95;100.00;102206.84;9841855;30;20043;-95
2022/01/17 10:06:04;;;;;;;37.67;8.25;;;;;;;3.56;100.00;102351.56;9827942;30;20044;-88
2022/01/17 10:11:13;;;;;;;48.67;6.35;;;;;;;2.93;100.00;102196.13;9844890;30;20044;-95
2022/01/17 10:16:19;;;;;;;51.63;9.05;;;;;;;5.41;100.00;102572.25;9824696;30;20481;-87
2022/01/17 10:21:45;;;;;;;46.38;8.32;;;;;;;4.43;100.00;102458.88;9838845;30;20571;-87
2022/01/17 10:27:14;;;;;;;48.63;7.88;;;;;;;7.15;100.00;102882.03;9839651;30;20389;-87
2022/01/17 10:37:36;;;;;;;48.88;7.55;;;;;;;2.86;100.00;102165.22;9848882;30;20047;-94
2022/01/17 10:42:45;;;;;;;42.10;7.18;;;;;;;6.11;100.00;102714.56;9850597;30;20521;-95
2022/01/17 10:47:50;;;;;;;38.42;6.32;;;;;;;2.53;100.00;102034.72;9846408;30;20036;-87
2022/01/17 10:52:55;;;;;;;42.17;8.52;;;;;;;6.81;100.00;102823.91;9845478;30;20103;-87
2022/01/17 10:58:01;;;;;;;47.65;8.60;;;;;;;3.41;100.00;102316.88;9829892;30;20032;-87
2022/01/17 11:03:11;;;;;;;57.70;8.55;;;;;;;4.22;100.00;102511.25;9844512;30;20044;-87
2022/01/17 11:08:12;;;;;;;;;;;;;;;7.64;100.00;102958.41;9844143;30;20040;-94
2022/01/17 11:13:15;;;;;;;44.85;7.03;;;;;;;5.52;100.00;102644.78;9848036;30;19921;-93
2022/01/17 11:18:20;;;;;;;46.88;8.10;;;;;;;6.95;100.00;102948.25;9847312;30;20052;-93
2022/01/17 11:23:21;;;;;;;57.97;8.82;;;;;;;5.52;100.00;102627.53;9861195;30;20060;-94
2022/01/17 11:28:27;;;;;;;50.40;6.88;;;;;;;3.71;100.00;102358.00;9881926;30;20066;-96
2022/01/17 11:33:28;;;;;;;44.30;8.48;;;;;;;2.62;100.00;102180.53;9859712;30;20078;-86
2022/01/17 11:38:40;;;;;;;46.50;8.88;;;;;;;3.55;100.00;102481.41;9843933;30;20130;-96
2022/01/17 11:43:41;;;;;;;59.70;8.38;;;;;;;5.40;100.00;102652.50;9831828;30;20078;-95
2022/01/17 11:48:41;;;;;;;41.78;8.68;;;;;;;4.98;100.00;102489.03;9830536;30;20074;-86
2022/01/17 11:53:44;;;;;;;44.47;8.38;;;;;;;6.50;100.00;102867.72;9830881;30;20048;-96
2022/01/17 11:58:45;;;;;;;47.40;7.90;;;;;;;4.21;100.00;102516.84;9830726;30;20463;-94
2022/01/17 12:03:55;;;;;;;53.53;7.45;;;;;;;6.44;100.00;102704.28;9830775;30;20474;-91
2022/01/17 12:09:19;;;;;;;52.28;8.82;;;;;;;8.17;100.00;102947.47;9829137;30;20097;-85
2022/01/17 12:14:33;;;;;;;51.67;8.32;;;;;;;5.04;100.00;102654.81;9830954;30;20047;-94
2022/01/17 12:19:34;;;;;;;47.70;7.50;;;;;;;6.77;100.00;102824.47;9841132;30;20054;-86
2022/01/17 12:24:39;;;;;;;37.42;7.13;;;;;;;5.53;100.00;102511.78;9856693;30;20098;-93
2022/01/17 12:29:54;;;;;;;43.65;8.98;;;;;;;5.27;100.00;102491.09;9815434;30;20036;-95
2022/01/17 12:34:58;;;;;;;48.58;8.95;;;;;;;5.69;100.00;102749.41;9830644;30;20139;-94
2022/01/17 12:40:08;;;;;;;55.70;9.90;;;;;;;8.13;100.00;102984.56;9830126;30;20109;-95
2022/01/17 12:45:08;;;;;;;38.05;7.05;;;;;;;6.07;100.00;102757.81;9844324;30;20040;-94
2022/01/17 12:50:09;;;;;;;45.85;7.60;;;;;;;4.91;100.00;102543.47;9821914;30;20043;-94
2022/01/17 12:55:10;;;;;;;51.05;6.35;;;;;;;3.40;100.00;102369.59;9829549;30;20040;-90
2022/01/17 13:00:21;;;;;;;30.60;6.45;;;;;;;4.27;100.00;102518.06;9827830;30;20036;-85
2022/01/17 13:05:27;;;;;;;44.97;7.82;;;;;;;6.90;100.00;102936.97;9802827;30;20040;-84
2022/01/17 13:10:27;;;;;;;30.73;6.68;;;;;;;3.55;100.00;102368.91;9820068;30;20052;-94
2022/01/17 13:15:29;;;;;;;32.55;6.50;;;;;;;4.11;100.00;102366.28;9791708;30;20048;-91
2022/01/17 13:20:30;;;;;;;36.60;7.18;;;;;;;6.06;100.00;102729.63;9817782;30;20414;-86
2022/01/17 13:25:31;;;;;;;23.90;5.90;;;;;;;7.41;100.00;103041.47;9803337;30;20048;-86
2022/01/17 13:30:32;;;;;;;32.55;6.53;;;;;;;4.42;100.00;102623.53;9820675;30;20028;-85
2022/01/17 13:35:35;;;;;;;24.23;5.30;;;;;;;7.28;100.00;102954.38;9838902;30;20046;-84
2022/01/17 13:40:36;;;;;;;30.92;5.43;;;;;;;4.43;100.00;102425.31;9829916;30;20046;-93
2022/01/17 13:45:49;;;;;;;35.03;6.68;;;;;;;3.75;100.00;102318.50;9830383;30;20043;-93
2022/01/17 13:50:55;;;;;;;40.47;6.25;;;;;;;6.91;100.00;102979.78;9829703;30;20067;-92
2022/01/17 13:55:57;;;;;;;34.83;5.28;;;;;;;3.14;100.00;102481.34;9827452;30;20504;-94
2022/01/17 14:00:58;;;;;;;37.63;5.63;;;;;;;4.05;100.00;102604.91;9823951;30;20034;-85
2022/01/17 14:06:09;;;;;;;35.60;5.82;;;;;;;5.52;100.00;102982.69;9823762;30;20043;-86
2022/01/17 14:11:12;;;;;;;29.05;5.35;;;;;;;7.22;100.00;103244.69;9840917;29;20054;-93
2022/01/17 14:16:23;;;;;;;26.13;5.38;;;;;;;2.69;100.00;102398.25;9835174;30;20027;-94
2022/01/17 14:21:25;;;;;;;29.70;4.18;;;;;;;3.05;100.00;102504.09;9835001;30;20047;-94
2022/01/17 14:26:27;;;;;;;19.77;3.30;;;;;;;4.14;100.00;102699.34;9834351;30;20147;-93
2022/01/17 14:31:43;;;;;;;17.88;2.72;;;;;;;1.72;100.00;102459.16;9835120;30;20162;-94
2022/01/17 14:37:16;;;;;;;18.33;3.15;;;;;;;2.74;100.00;102684.16;9834292;30;20482;-90
2022/01/17 14:42:26;;;;;;;12.07;2.08;;;;;;;4.65;100.00;102863.78;9887299;29;20048;-94
2022/01/17 14:47:34;;;;;;;19.17;2.38;;;;;;;1.52;100.00;102507.31;9849318;30;20118;-94
2022/01/17 14:52:38;;;;;;;14.55;1.92;;;;;;;2.67;100.00;102622.38;9833881;30;20142;-88
2022/01/17 15:03:08;;;;;;;17.92;2.60;;;;;;;3.40;100.00;102832.47;9878206;30;20040;-92
2022/01/17 15:08:10;;;;;;;13.40;2.50;;;;;;;5.09;100.00;103072.06;9832969;30;20122;-85
2022/01/17 15:13:11;;;;;;;18.67;3.10;;;;;;;4.54;100.00;103071.38;9844361;30;20044;-85
2022/01/17 15:18:15;;;;;;;17.77;2.67;;;;;;;0.11;100.00;102284.47;9859526;30;20058;-84
2022/01/17 15:23:18;;;;;;;16.15;2.13;;;;;;;2.09;100.00;102719.75;9845342;30;20048;-85
2022/01/17 15:28:18;;;;;;;13.02;2.90;;;;;;;2.92;100.00;102779.34;9828044;30;20035;-84
2022/01/17 15:33:19;;;;;;;18.65;2.33;;;;;;;1.44;100.00;102474.66;9843636;29;20039;-84
2022/01/17 15:38:22;;;;;;;25.77;4.75;;;;;;;4.57;100.00;103082.00;9843074;30;20050;-93
2022/01/17 15:43:22;;;;;;;16.73;2.83;;;;;;;0.05;100.00;102514.41;9844423;30;20514;-94
2022/01/17 15:48:23;;;;;;;25.40;2.88;;;;;;;0.14;100.00;102462.06;9845163;30;20055;-83
2022/01/17 15:53:24;;;;;;;15.63;3.47;;;;;;;2.53;100.00;102863.09;9847720;30;20036;-93
2022/01/17 15:58:24;;;;;;;16.50;3.88;;;;;;;2.02;100.00;102840.88;9843672;30;20382;-85
2022/01/17 16:03:25;;;;;;;21.63;3.22;;;;;;;3.98;100.00;103042.69;9826794;30;20070;-84
2022/01/17 16:08:25;;;;;;;19.80;3.17;;;;;;;0.14;100.00;102389.78;9856318;30;20032;-85
2022/01/17 16:13:26;;;;;;;22.95;4.32;;;;;;;2.91;100.00;103011.59;9841843;30;20119;-82
2022/01/17 16:18:27;;;;;;;28.70;4.60;;;;;;;1.26;100.00;102692.59;9839261;30;20043;-85
2022/01/17 16:23:28;;;;;;;20.08;4.78;;;;;;;2.04;100.00;102800.84;9839382;30;20054;-85
2022/01/17 16:28:28;;;;;;;28.55;3.72;;;;;;;1.94;100.00;102919.56;9840076;30;20374;-85
2022/01/17 16:33:29;;;;;;;26.52;3.92;;;;;;;1.97;100.00;102864.94;9820483;30;20071;-92
2022/01/17 16:38:31;;;;;;;26.10;4.20;;;;;;;3.60;100.00;103270.81;9807710;30;20098;-93
2022/01/17 16:43:31;;;;;;;35.55;6.07;;;;;;;1.68;100.00;102917.47;9845929;30;20047;-86
2022/01/17 16:48:32;;;;;;;23.13;3.28;;;;;;;0.49;100.00;102851.59;9875793;29;20471;-85
2022/01/17 16:53:33;;;;;;;24.33;2.65;;;;;;;-0.32;100.00;102626.94;9847131;30;20032;-85
2022/01/17 16:58:33;;;;;;;25.42;4.20;;;;;;;3.64;100.00;103177.75;9844453;30;20035;-84
2022/01/17 17:03:34;;;;;;;23.27;4.38;;;;;;;0.99;100.00;102866.94;9838177;30;20123;-83
2022/01/17 17:08:34;;;;;;;20.92;3.03;;;;;;;0.22;100.00;102583.22;9846516;30;20047;-84
2022/01/17 17:13:35;;;;;;;15.00;2.70;;;;;;;0.30;100.00;102748.59;9838684;30;20056;-85
2022/01/17 17:18:37;;;;;;;18.33;3.03;;;;;;;1.08;100.00;102846.25;9826880;30;20048;-84
2022/01/17 17:23:37;;;;;;;26.38;4.18;;;;;;;-2.85;100.00;102293.66;9829143;30;20481;-93
2022/01/17 17:28:38;;;;;;;18.42;5.78;;;;;;;0.80;100.00;102884.03;9842478;30;20075;-93
2022/01/17 17:33:39;;;;;;;29.27;4.68;;;;;;;0.71;100.00;102741.22;9825263;30;20490;-84
2022/01/17 17:38:39;;;;;;;29.27;3.88;;;;;;;0.39;100.00;103018.72;9827776;30;20134;-92
2022/01/17 17:43:41;;;;;;;21.63;4.10;;;;;;;1.35;100.00;102945.94;9842090;30;20162;-93
2022/01/17 17:48:42;;;;;;;24.17;5.53;;;;;;;1.44;100.00;103037.34;9842509;30;20035;-92
2022/01/17 17:53:45;;;;;;;29.35;4.50;;;;;;;0.94;100.00;102889.06;9841514;30;20048;-92
2022/01/17 17:58:45;;;;;;;33.67;4.80;;;;;;;2.18;100.00;103175.38;9842538;30;20046;-92
2022/01/17 18:03:47;;;;;;;32.72;5.45;;;;;;;1.21;100.00;102977.03;9843896;30;20500;-92
2022/01/17 18:08:47;;;;;;;35.90;6.18;;;;;;;2.35;100.00;103164.78;9844877;30;20609;-92
2022/01/17 18:13:48;;;;;;;37.38;7.35;;;;;;;0.06;100.00;102776.91;9842754;30;20139;-93
2022/01/17 18:18:48;;;;;;;42.78;6.47;;;;;;;1.13;100.00;103040.13;9839483;30;20058;-85
2022/01/17 18:23:49;;;;;;;46.45;6.20;;;;;;;0.34;100.00;102877.38;9856484;30;20097;-91
2022/01/17 18:28:51;;;;;;;38.67;7.43;;;;;;;0.70;100.00;102846.06;9842668;30;20138;-92
2022/01/17 18:33:52;;;;;;;38.83;6.15;;;;;;;4.64;100.00;103503.25;9842382;30;20125;-93
2022/01/17 18:38:59;;;;;;;36.38;7.68;;;;;;;0.63;100.00;102857.63;9840209;30;20567;-83
2022/01/17 18:43:59;;;;;;;;;;;;;;;4.71;100.00;103442.63;9838188;30;20394;-84
2022/01/17 18:49:00;;;;;;;34.55;5.95;;;;;;;1.07;100.00;102863.53;9855976;30;19917;-91
2022/01/17 18:54:01;;;;;;;38.25;8.50;;;;;;;0.67;100.00;102850.94;9845076;30;20035;-93
2022/01/17 18:59:03;;;;;;;48.28;9.40;;;;;;;-0.68;100.00;102647.34;9846909;30;20382;-93
2022/01/17 19:04:07;;;;;;;41.72;7.43;;;;;;;1.94;100.00;103011.91;9848826;30;20489;-94
2022/01/17 19:09:08;;;;;;;53.20;9.40;;;;;;;1.71;100.00;102979.63;9863126;30;20374;-93
2022/01/17 19:14:09;;;;;;;44.92;7.68;;;;;;;2.11;100.00;103203.25;9847489;30;20067;-94
2022/01/17 19:24:11;;;;;;;39.30;6.43;;;;;;;3.28;100.00;103318.31;9859435;30;20114;-84
2022/01/17 19:29:12;;;;;;;35.42;6.65;;;;;;;2.62;100.00;103112.38;9843730;30;20464;-94
2022/01/17 19:34:13;;;;;;;43.60;6.28;;;;;;;1.10;100.00;102983.47;9844083;30;20463;-84
2022/01/17 19:39:14;;;;;;;45.20;7.18;;;;;;;0.37;100.00;102801.22;9859163;30;20075;-84
2022/01/17 19:44:14;;;;;;;28.80;4.60;;;;;;;0.66;100.00;102906.97;9844000;30;20576;-82
2022/01/17 19:49:15;;;;;;;33.05;6.07;;;;;;;3.87;100.00;103504.34;9858735;30;20139;-94
2022/01/17 19:54:15;;;;;;;36.85;6.38;;;;;;;2.93;100.00;103219.09;9859360;30;20074;-93
2022/01/17 19:59:16;;;;;;;30.63;4.68;;;;;;;5.13;100.00;103573.16;9843676;30;20044;-92
2022/01/17 20:04:16;;;;;;;35.33;4.70;;;;;;;2.83;100.00;103245.47;9860152;30;20170;-86
2022/01/17 20:09:17;;;;;;;36.05;6.95;;;;;;;4.17;100.00;103410.56;9858412;30;20054;-85
2022/01/17 20:14:17;;;;;;;39.80;6.65;;;;;;;3.05;100.00;103246.16;9843528;30;20064;-85
2022/01/17 20:19:18;;;;;;;27.98;4.03;;;;;;;2.08;100.00;103079.41;9857796;30;20055;-85
2022/01/17 20:24:19;;;;;;;30.10;4.88;;;;;;;2.62;100.00;103241.06;9844215;30;20631;-85
2022/01/17 20:29:19;;;;;;;21.50;3.92;;;;;;;2.13;100.00;103108.84;9844432;30;20070;-95
2022/01/17 20:34:21;;;;;;;34.95;8.63;;;;;;;3.08;100.00;103178.72;9841995;30;20062;-85
2022/01/17 20:39:21;;;;;;;29.58;4.43;;;;;;;1.18;100.00;102923.94;9857317;30;20048;-85
2022/01/17 20:44:22;;;;;;;16.58;2.85;;;;;;;2.86;100.00;103275.13;9856955;30;20054;-94
2022/01/17 20:49:22;;;;;;;19.58;3.25;;;;;;;4.90;100.00;103676.41;9841467;30;20038;-94
2022/01/17 20:54:23;;;;;;;23.33;3.15;;;;;;;2.57;100.00;103246.06;9856927;30;20043;-85
2022/01/17 20:59:23;;;;;;;23.63;3.70;;;;;;;1.30;100.00;102997.94;9869768;30;20181;-84
2022/01/17 21:04:24;;;;;;;15.30;2.63;;;;;;;0.03;100.00;102926.16;9860827;30;20415;-94
2022/01/17 21:09:26;;;;;;;11.38;2.90;;;;;;;2.20;100.00;103263.06;9850598;30;20063;-84
2022/01/17 21:14:27;;;;;;;17.98;2.45;;;;;;;3.08;100.00;103387.41;9829782;30;20043;-84
2022/01/17 21:19:27;;;;;;;13.63;2.90;;;;;;;1.88;100.00;103167.31;9822467;30;20075;-84
2022/01/17 21:24:28;;;;;;;14.30;2.03;;;;;;;2.27;100.00;103278.81;9816518;30;20040;-83
2022/01/17 21:29:28;;;;;;;16.58;2.20;;;;;;;2.10;100.00;103188.81;9803492;30;20083;-84
2022/01/17 21:34:29;;;;;;;18.15;1.80;;;;;;;1.79;100.00;103150.88;9811112;30;20151;-84
2022/01/17 21:39:32;;;;;;;10.35;2.20;;;;;;;3.48;100.00;103331.91;9832160;30;20101;-84
2022/01/17 21:44:32;;;;;;;18.67;2.45;;;;;;;4.36;100.00;103656.97;9820233;30;20054;-85
2022/01/17 21:49:34;;;;;;;22.17;2.80;;;;;;;1.98;100.00;103170.91;9829897;30;20406;-84
2022/01/17 21:54:35;;;;;;;23.20;4.55;;;;;;;1.44;100.00;103071.78;9838665;30;20048;-85
2022/01/17 21:59:37;;;;;;;35.78;4.95;;;;;;;1.83;100.00;103091.69;9868646;30;20387;-85
2022/01/17 22:04:37;;;;;;;19.63;3.92;;;;;;;3.67;100.00;103424.47;9853733;30;20036;-85
2022/01/17 22:09:38;;;;;;;19.80;4.22;;;;;;;2.91;100.00;103259.22;9853696;30;20079;-85
2022/01/17 22:14:39;;;;;;;37.30;6.30;;;;;;;1.91;100.00;103142.59;9838806;30;20082;-85
2022/01/17 22:19:40;;;;;;;29.75;6.35;;;;;;;2.09;100.00;103233.31;9852409;30;20076;-83
2022/01/17 22:24:41;;;;;;;20.45;3.92;;;;;;;2.99;100.00;103321.94;9818283;30;20055;-93
2022/01/17 22:29:42;;;;;;;29.55;6.07;;;;;;;2.94;100.00;103462.16;9805818;30;20043;-91
2022/01/17 22:34:43;;;;;;;29.85;4.53;;;;;;;1.44;100.00;103183.06;9811513;30;20131;-85
2022/01/17 22:39:43;;;;;;;31.67;4.60;;;;;;;0.34;100.00;103062.47;9794233;30;20036;-85
2022/01/17 22:44:44;;;;;;;27.02;4.32;;;;;;;2.45;100.00;103418.50;9808608;30;20068;-85
2022/01/17 22:49:45;;;;;;;34.65;6.55;;;;;;;0.99;100.00;103236.72;9794260;30;20032;-85
2022/01/17 22:54:47;;;;;;;32.85;4.15;;;;;;;3.91;100.00;103611.22;9809318;30;20040;-95
2022/01/17 22:59:48;;;;;;;36.85;4.43;;;;;;;3.41;100.00;103584.88;9820417;30;20501;-94
2022/01/17 23:04:49;;;;;;;34.40;4.55;;;;;;;3.51;100.00;103437.84;9829039;30;20139;-96
2022/01/17 23:09:49;;;;;;;26.60;4.20;;;;;;;1.97;100.00;103112.16;9810990;30;20497;-85
2022/01/17 23:14:50;;;;;;;31.80;6.65;;;;;;;3.67;100.00;103495.31;9797693;30;20044;-95
2022/01/17 23:19:52;;;;;;;42.40;6.35;;;;;;;1.20;100.00;103128.16;9812563;30;20070;-85
2022/01/17 23:24:52;;;;;;;43.70;6.80;;;;;;;1.90;100.00;103219.66;9822017;30;20060;-85
2022/01/17 23:30:00;;;;;;;41.17;5.10;;;;;;;1.93;100.00;103260.13;9809655;30;20510;-85